createdAt,value
2019-02-02T00:02:15.299Z,36.50
2019-02-02T00:07:17.987Z,37.63
2019-02-02T00:12:20.193Z,37.97
2019-02-02T00:17:22.702Z,39.27
2019-02-02T00:22:24.999Z,43.27
2019-02-02T00:27:27.589Z,48.50
2019-02-02T00:32:29.779Z,44.23
2019-02-02T00:37:31.930Z,42.23
2019-02-02T00:42:34.853Z,42.57
2019-02-02T00:47:37.108Z,46.80
2019-02-02T00:52:39.468Z,46.53
2019-02-02T00:57:52.671Z,45.37
2019-02-02T01:02:47.398Z,48.47
2019-02-02T01:07:49.961Z,45.90
2019-02-02T01:12:53.349Z,48.27
2019-02-02T01:17:55.919Z,48.60
2019-02-02T01:22:59.095Z,47.30
2019-02-02T01:28:05.506Z,50.50
2019-02-02T01:33:06.522Z,51.17
2019-02-02T01:38:09.496Z,51.40
2019-02-02T01:43:12.143Z,51.57
2019-02-02T01:48:14.351Z,51.40
2019-02-02T01:53:17.633Z,49.00
2019-02-02T01:58:20.428Z,54.00
2019-02-02T02:03:22.921Z,49.73
2019-02-02T02:08:25.175Z,50.87
2019-02-02T02:13:27.369Z,52.10
2019-02-02T02:18:29.755Z,52.20
2019-02-02T02:23:32.285Z,55.13
2019-02-02T02:28:35.355Z,53.03
2019-02-02T02:33:37.869Z,54.73
2019-02-02T02:38:40.072Z,54.97
2019-02-02T02:43:42.356Z,52.60
2019-02-02T02:48:44.883Z,54.03
2019-02-02T02:53:47.074Z,53.93
2019-02-02T02:58:50.108Z,53.03
2019-02-02T03:03:52.279Z,54.33
2019-02-02T03:08:55.115Z,55.83
2019-02-02T03:13:57.920Z,57.13
2019-02-02T03:19:00.391Z,60.07
2019-02-02T03:24:02.553Z,60.77
2019-02-02T03:29:05.071Z,60.23
2019-02-02T03:34:07.541Z,60.60
2019-02-02T03:39:11.271Z,59.77
2019-02-02T03:44:13.767Z,59.53
2019-02-02T03:49:16.368Z,60.70
2019-02-02T03:54:19.361Z,61.83
2019-02-02T03:59:21.565Z,58.87
2019-02-02T04:04:23.790Z,59.73
2019-02-02T04:09:25.886Z,59.27
2019-02-02T04:14:28.071Z,61.17
2019-02-02T04:19:30.380Z,59.27
2019-02-02T04:24:33.289Z,61.10
2019-02-02T04:29:35.467Z,59.67
2019-02-02T04:34:37.688Z,62.17
2019-02-02T04:39:40.795Z,60.17
2019-02-02T04:44:43.055Z,59.60
2019-02-02T04:49:45.466Z,60.17
2019-02-02T04:54:47.696Z,60.20
2019-02-02T04:59:49.846Z,57.83
2019-02-02T05:04:52.036Z,58.27
2019-02-02T05:09:54.536Z,61.07
2019-02-02T05:14:56.853Z,58.27
2019-02-02T05:19:59.037Z,57.83
2019-02-02T05:25:01.291Z,60.13
2019-02-02T05:30:08.687Z,59.57
2019-02-02T05:35:11.103Z,59.83
2019-02-02T05:40:15.020Z,60.63
2019-02-02T05:45:19.279Z,60.83
2019-02-02T05:50:22.623Z,61.47
2019-02-02T05:55:25.187Z,58.37
2019-02-02T06:00:36.971Z,60.40
2019-02-02T06:05:39.193Z,58.80
2019-02-02T06:10:42.776Z,56.97
2019-02-02T06:15:45.298Z,58.17
2019-02-02T06:20:47.505Z,57.60
2019-02-02T06:25:49.712Z,56.80
2019-02-02T06:30:51.944Z,59.10
2019-02-02T06:35:54.470Z,56.20
2019-02-02T06:41:00.668Z,58.27
2019-02-02T06:46:03.890Z,56.20
2019-02-02T06:51:06.827Z,57.17
2019-02-02T06:56:10.156Z,55.93
2019-02-02T07:01:12.651Z,56.60
2019-02-02T07:06:15.970Z,55.07
2019-02-02T07:11:18.124Z,55.23
2019-02-02T07:16:20.928Z,55.70
2019-02-02T07:21:23.191Z,57.10
2019-02-02T07:26:25.739Z,56.53
2019-02-02T07:31:28.324Z,56.53
2019-02-02T07:36:31.043Z,57.07
2019-02-02T07:41:33.218Z,58.23
2019-02-02T07:46:35.684Z,56.03
2019-02-02T07:51:37.894Z,56.77
2019-02-02T07:56:40.060Z,54.63
2019-02-02T08:01:42.348Z,54.57
2019-02-02T08:06:46.265Z,55.83
2019-02-02T08:11:49.080Z,57.57
2019-02-02T08:16:52.662Z,56.40
2019-02-02T08:21:55.686Z,53.43
2019-02-02T08:26:57.961Z,55.43
2019-02-02T08:32:01.259Z,55.37
2019-02-02T08:37:04.187Z,54.37
2019-02-02T08:42:07.421Z,54.37
2019-02-02T08:47:10.621Z,56.30
2019-02-02T08:52:14.115Z,57.00
2019-02-02T08:57:17.361Z,55.93
2019-02-02T09:02:19.980Z,55.83
2019-02-02T09:07:22.469Z,55.23
2019-02-02T09:12:25.145Z,56.53
2019-02-02T09:17:27.389Z,55.97
2019-02-02T09:22:29.548Z,55.17
2019-02-02T09:27:31.974Z,55.50
2019-02-02T09:32:34.134Z,55.53
2019-02-02T09:37:36.318Z,56.53
2019-02-02T09:42:38.468Z,56.73
2019-02-02T09:47:41.282Z,57.17
2019-02-02T09:52:44.234Z,55.63
2019-02-02T09:57:47.304Z,55.57
2019-02-02T10:02:50.029Z,56.10
2019-02-02T10:07:52.933Z,58.53
2019-02-02T10:12:55.624Z,58.30
2019-02-02T10:17:57.999Z,55.03
2019-02-02T10:23:00.783Z,56.03
2019-02-02T10:28:03.973Z,57.40
2019-02-02T10:33:08.020Z,54.30
2019-02-02T10:38:11.171Z,55.67
2019-02-02T10:43:13.758Z,57.77
2019-02-02T10:48:16.198Z,52.77
2019-02-02T10:53:18.382Z,53.03
2019-02-02T10:58:21.142Z,54.87
2019-02-02T11:03:23.934Z,53.07
2019-02-02T11:08:26.591Z,51.90
2019-02-02T11:13:28.869Z,53.87
2019-02-02T11:18:31.721Z,53.30
2019-02-02T11:23:34.795Z,54.63
2019-02-02T11:28:37.349Z,55.67
2019-02-02T11:33:39.626Z,57.13
2019-02-02T11:38:41.929Z,55.77
2019-02-02T11:43:44.138Z,55.40
2019-02-02T11:48:46.572Z,57.23
2019-02-02T11:53:49.160Z,56.97
2019-02-02T11:58:51.641Z,56.00
2019-02-02T12:03:54.116Z,57.50
2019-02-02T12:08:56.604Z,55.03
2019-02-02T12:13:58.737Z,57.47
2019-02-02T12:19:00.894Z,56.60
2019-02-02T12:24:13.275Z,58.70
2019-02-02T12:29:08.431Z,58.60
2019-02-02T12:34:14.089Z,57.90
2019-02-02T12:39:16.563Z,56.43
2019-02-02T12:44:18.743Z,58.17
2019-02-02T12:49:21.558Z,58.90
2019-02-02T12:54:23.743Z,57.00
2019-02-02T12:59:25.971Z,56.17
2019-02-02T13:04:28.777Z,53.97
2019-02-02T13:09:30.935Z,51.60
2019-02-02T13:14:33.716Z,52.47
2019-02-02T13:19:36.593Z,54.40
2019-02-02T13:24:38.791Z,53.90
2019-02-02T13:29:40.980Z,52.53
2019-02-02T13:34:44.028Z,49.27
2019-02-02T13:39:46.795Z,47.80
2019-02-02T13:44:49.290Z,50.60
2019-02-02T13:49:52.233Z,48.17
2019-02-02T13:54:54.409Z,48.33
2019-02-02T13:59:56.718Z,44.03
2019-02-02T14:05:00.396Z,45.47
2019-02-02T14:10:04.478Z,45.57
2019-02-02T14:15:09.289Z,45.97
2019-02-02T14:20:12.698Z,45.00
2019-02-02T14:25:17.403Z,43.90
2019-02-02T14:30:23.019Z,43.53
2019-02-02T14:35:26.496Z,42.70
2019-02-02T14:40:29.388Z,43.67
2019-02-02T14:45:32.265Z,41.60
2019-02-02T14:50:34.445Z,41.37
2019-02-02T14:55:36.957Z,44.77
2019-02-02T15:00:39.359Z,43.40
2019-02-02T15:05:43.331Z,45.33
2019-02-02T15:10:46.291Z,46.10
2019-02-02T15:15:48.457Z,44.33
2019-02-02T15:20:50.673Z,42.87
2019-02-02T15:25:53.364Z,47.43
2019-02-02T15:30:55.838Z,47.03
2019-02-02T15:35:58.090Z,51.00
2019-02-02T15:41:00.333Z,50.63
2019-02-02T15:46:03.008Z,48.90
2019-02-02T15:51:06.309Z,49.93
2019-02-02T15:56:09.145Z,50.87
2019-02-02T16:01:12.229Z,51.17
2019-02-02T16:06:15.144Z,48.23
2019-02-02T16:11:17.428Z,48.67
2019-02-02T16:16:20.159Z,50.73
2019-02-02T16:21:22.627Z,53.17
2019-02-02T16:26:26.231Z,51.70
2019-02-02T16:31:29.140Z,50.57
2019-02-02T16:36:31.470Z,50.67
2019-02-02T16:41:34.293Z,49.47
2019-02-02T16:46:37.915Z,48.40
2019-02-02T16:51:40.804Z,47.93
2019-02-02T16:56:44.642Z,50.77
2019-02-02T17:01:46.826Z,46.80
2019-02-02T17:06:49.117Z,46.53
2019-02-02T17:11:51.408Z,48.47
2019-02-02T17:16:53.717Z,49.37
2019-02-02T17:21:56.111Z,48.53
2019-02-02T17:26:58.818Z,48.80
2019-02-02T17:32:01.393Z,48.07
2019-02-02T17:37:03.897Z,47.37
2019-02-02T17:42:06.787Z,49.20
2019-02-02T17:47:09.601Z,47.77
2019-02-02T17:52:11.814Z,47.03
2019-02-02T17:57:14.461Z,47.43
2019-02-02T18:02:16.762Z,47.30
2019-02-02T18:07:19.393Z,46.60
2019-02-02T18:12:22.348Z,45.63
2019-02-02T18:17:25.356Z,46.17
2019-02-02T18:22:27.825Z,48.80
2019-02-02T18:27:31.707Z,43.43
2019-02-02T18:32:34.144Z,42.77
2019-02-02T18:37:36.336Z,44.10
2019-02-02T18:42:38.651Z,43.20
2019-02-02T18:47:41.711Z,41.20
2019-02-02T18:52:45.473Z,42.17
2019-02-02T18:57:48.332Z,41.43
2019-02-02T19:02:51.070Z,41.53
2019-02-02T19:07:53.643Z,42.23
2019-02-02T19:12:55.858Z,41.70
2019-02-02T19:17:59.500Z,42.80
2019-02-02T19:23:02.245Z,45.10
2019-02-02T19:28:06.784Z,42.23
2019-02-02T19:33:08.941Z,43.27
2019-02-02T19:38:11.222Z,44.00
2019-02-02T19:43:13.508Z,43.17
2019-02-02T19:48:15.711Z,44.53
2019-02-02T19:53:18.303Z,44.23
2019-02-02T19:58:20.557Z,45.83
2019-02-02T20:03:23.422Z,46.10
2019-02-02T20:08:26.918Z,47.43
2019-02-02T20:13:29.238Z,45.23
2019-02-02T20:18:32.118Z,46.47
2019-02-02T20:23:38.081Z,46.10
2019-02-02T20:28:38.553Z,45.37
2019-02-02T20:33:40.735Z,44.77
2019-02-02T20:38:43.475Z,43.83
2019-02-02T20:43:45.698Z,43.83
2019-02-02T20:48:48.384Z,44.97
2019-02-02T20:53:50.566Z,45.97
2019-02-02T20:58:52.965Z,42.83
2019-02-02T21:03:55.625Z,40.70
2019-02-02T21:08:58.200Z,41.50
2019-02-02T21:14:01.058Z,39.17
2019-02-02T21:19:03.751Z,38.33
2019-02-02T21:24:06.166Z,38.27
2019-02-02T21:29:08.860Z,35.67
2019-02-02T21:34:12.906Z,35.03
2019-02-02T21:39:16.078Z,33.00
2019-02-02T21:44:18.973Z,33.07
2019-02-02T21:49:21.379Z,32.13
2019-02-02T21:54:25.818Z,28.63
2019-02-02T21:59:29.531Z,28.33
2019-02-02T22:04:31.972Z,26.80
2019-02-02T22:09:34.826Z,27.30
2019-02-02T22:14:37.716Z,25.77
2019-02-02T22:19:40.492Z,23.63
2019-02-02T22:24:42.855Z,21.43
2019-02-02T22:29:46.358Z,20.70
2019-02-02T22:34:48.933Z,20.57
2019-02-02T22:39:51.182Z,19.77
2019-02-02T22:44:53.770Z,20.70
2019-02-02T22:49:56.222Z,19.20
2019-02-02T22:54:58.788Z,19.20
2019-02-02T23:00:01.682Z,19.63
2019-02-02T23:05:52.813Z,20.23
2019-02-02T23:11:23.008Z,20.83
2019-02-02T23:16:27.708Z,17.83
2019-02-02T23:21:31.124Z,16.93
2019-02-02T23:26:33.596Z,16.73
2019-02-02T23:31:36.819Z,16.03
2019-02-02T23:36:51.095Z,16.53
2019-02-02T23:41:44.636Z,16.10
2019-02-02T23:46:47.051Z,15.37
2019-02-02T23:51:49.268Z,17.57
2019-02-02T23:56:51.737Z,17.00
